createdAt,value
2019-03-05T00:00:28.699Z,62.50
2019-03-05T00:02:56.931Z,63.30
2019-03-05T00:05:25.946Z,63.60
2019-03-05T00:07:54.234Z,63.40
2019-03-05T00:10:22.558Z,63.60
2019-03-05T00:12:50.845Z,63.80
2019-03-05T00:15:20.743Z,63.90
2019-03-05T00:17:49.346Z,64.10
2019-03-05T00:20:17.620Z,64.20
2019-03-05T00:22:45.896Z,64.50
2019-03-05T00:25:32.132Z,64.40
2019-03-05T00:28:18.001Z,64.70
2019-03-05T00:30:52.436Z,65.00
2019-03-05T00:33:33.043Z,65.30
2019-03-05T00:36:07.401Z,65.50
2019-03-05T00:39:00.035Z,65.60
2019-03-05T00:41:34.440Z,65.80
2019-03-05T00:44:27.113Z,65.80
2019-03-05T00:47:07.442Z,65.80
2019-03-05T00:49:53.875Z,66.00
2019-03-05T00:52:28.033Z,66.20
2019-03-05T00:55:02.720Z,66.10
2019-03-05T00:57:40.224Z,66.20
2019-03-05T01:00:29.876Z,66.20
2019-03-05T01:03:27.302Z,66.30
2019-03-05T01:06:04.814Z,66.70
2019-03-05T01:08:33.085Z,66.80
2019-03-05T01:11:01.365Z,66.90
2019-03-05T01:13:29.604Z,66.80
2019-03-05T01:15:57.935Z,66.60
2019-03-05T01:18:26.187Z,66.60
2019-03-05T01:20:54.487Z,66.50
2019-03-05T01:23:22.796Z,66.60
2019-03-05T01:25:51.050Z,66.70
2019-03-05T01:28:19.402Z,66.70
2019-03-05T01:30:58.427Z,66.60
2019-03-05T01:33:28.351Z,66.50
2019-03-05T01:36:03.769Z,66.40
2019-03-05T01:38:33.695Z,66.50
2019-03-05T01:41:03.605Z,66.60
2019-03-05T01:43:31.850Z,66.40
2019-03-05T01:46:00.099Z,66.50
2019-03-05T01:48:28.422Z,66.50
2019-03-05T01:50:56.679Z,66.80
2019-03-05T01:53:24.945Z,66.80
2019-03-05T01:55:53.186Z,66.80
2019-03-05T01:58:21.436Z,66.90
2019-03-05T02:00:49.695Z,67.00
2019-03-05T02:03:17.913Z,66.90
2019-03-05T02:05:46.363Z,67.10
2019-03-05T02:08:14.688Z,66.90
2019-03-05T02:10:43.212Z,66.70
2019-03-05T02:13:11.463Z,66.60
2019-03-05T02:15:39.743Z,66.80
2019-03-05T02:18:08.276Z,66.80
2019-03-05T02:20:36.538Z,66.90
2019-03-05T02:23:10.915Z,66.90
2019-03-05T02:25:58.978Z,66.50
2019-03-05T02:28:31.095Z,66.60
2019-03-05T02:31:11.818Z,66.50
2019-03-05T02:34:07.605Z,66.40
2019-03-05T02:36:41.627Z,66.30
2019-03-05T02:39:43.342Z,66.20
2019-03-05T02:42:20.571Z,66.30
2019-03-05T02:45:06.439Z,66.60
2019-03-05T02:48:11.271Z,66.40
2019-03-05T02:51:02.311Z,66.30
2019-03-05T02:53:48.144Z,66.40
2019-03-05T02:56:31.882Z,66.60
2019-03-05T02:58:59.228Z,66.60
2019-03-05T03:01:32.011Z,66.10
2019-03-05T03:04:01.886Z,66.00
2019-03-05T03:06:30.820Z,66.10
2019-03-05T03:09:26.374Z,66.50
2019-03-05T03:11:54.663Z,66.50
2019-03-05T03:14:22.970Z,65.90
2019-03-05T03:16:51.234Z,65.90
2019-03-05T03:19:19.478Z,65.90
2019-03-05T03:21:47.720Z,66.00
2019-03-05T03:24:15.988Z,65.70
2019-03-05T03:26:44.232Z,66.30
2019-03-05T03:29:12.556Z,65.70
2019-03-05T03:31:40.830Z,65.70
2019-03-05T03:34:09.141Z,65.60
2019-03-05T03:36:37.445Z,66.10
2019-03-05T03:39:06.046Z,65.30
2019-03-05T03:41:34.302Z,65.20
2019-03-05T03:44:02.562Z,65.20
2019-03-05T03:46:30.811Z,65.00
2019-03-05T03:48:59.071Z,64.70
2019-03-05T03:51:27.337Z,64.60
2019-03-05T03:53:55.554Z,64.40
2019-03-05T03:56:23.832Z,64.40
2019-03-05T03:58:52.068Z,64.70
2019-03-05T04:01:20.384Z,64.50
2019-03-05T04:03:48.651Z,64.10
2019-03-05T04:06:16.891Z,64.20
2019-03-05T04:08:45.130Z,64.00
2019-03-05T04:11:13.365Z,63.00
2019-03-05T04:13:41.599Z,63.20
2019-03-05T04:16:09.857Z,63.00
2019-03-05T04:18:38.099Z,62.00
2019-03-05T04:21:06.336Z,62.20
2019-03-05T04:23:34.574Z,62.40
2019-03-05T04:26:02.824Z,62.60
2019-03-05T04:28:31.069Z,62.10
2019-03-05T04:30:59.331Z,62.10
2019-03-05T04:33:27.593Z,62.30
2019-03-05T04:35:55.875Z,62.20
2019-03-05T04:38:24.151Z,62.20
2019-03-05T04:40:52.371Z,62.00
2019-03-05T04:43:20.615Z,61.80
2019-03-05T04:45:53.441Z,61.70
2019-03-05T04:48:21.667Z,62.00
2019-03-05T04:50:51.567Z,61.90
2019-03-05T04:53:19.799Z,61.70
2019-03-05T04:55:48.119Z,62.00
2019-03-05T04:58:16.360Z,61.80
2019-03-05T05:00:44.615Z,61.70
2019-03-05T05:03:12.943Z,62.10
2019-03-05T05:05:41.201Z,63.00
2019-03-05T05:08:09.439Z,62.50
2019-03-05T05:10:37.700Z,62.70
2019-03-05T05:13:05.973Z,63.00
2019-03-05T05:15:34.907Z,63.40
2019-03-05T05:18:03.206Z,63.60
2019-03-05T05:20:31.472Z,63.60
2019-03-05T05:22:59.734Z,63.60
2019-03-05T05:25:28.002Z,63.80
2019-03-05T05:27:56.232Z,64.00
2019-03-05T05:30:33.095Z,63.90
2019-03-05T05:33:01.385Z,63.90
2019-03-05T05:35:29.613Z,64.00
2019-03-05T05:37:57.855Z,64.00
2019-03-05T05:40:28.812Z,64.10
2019-03-05T05:42:57.188Z,64.00
2019-03-05T05:45:29.080Z,63.90
2019-03-05T05:47:57.324Z,63.90
2019-03-05T05:50:25.593Z,64.00
2019-03-05T05:52:53.815Z,63.70
2019-03-05T05:55:22.071Z,63.70
2019-03-05T05:57:50.395Z,63.90
2019-03-05T06:00:19.107Z,64.10
2019-03-05T06:02:47.404Z,64.10
2019-03-05T06:05:15.682Z,64.10
2019-03-05T06:07:43.917Z,64.00
2019-03-05T06:10:13.371Z,63.60
2019-03-05T06:12:41.634Z,63.90
2019-03-05T06:15:12.507Z,64.10
2019-03-05T06:17:40.807Z,64.10
2019-03-05T06:20:14.157Z,64.10
2019-03-05T06:22:42.425Z,64.20
2019-03-05T06:25:11.712Z,64.10
2019-03-05T06:27:39.982Z,64.10
2019-03-05T06:30:11.747Z,64.30
2019-03-05T06:32:40.042Z,64.20
2019-03-05T06:35:08.925Z,63.80
2019-03-05T06:37:37.219Z,63.60
2019-03-05T06:40:08.776Z,63.60
2019-03-05T06:42:37.033Z,63.80
2019-03-05T06:45:08.642Z,63.80
2019-03-05T06:47:36.914Z,63.60
2019-03-05T06:50:08.416Z,63.70
2019-03-05T06:52:36.760Z,63.50
2019-03-05T06:55:15.095Z,63.60
2019-03-05T06:57:43.357Z,63.70
2019-03-05T07:00:27.839Z,63.30
2019-03-05T07:02:56.096Z,63.30
2019-03-05T07:06:00.821Z,62.90
2019-03-05T07:08:29.670Z,62.70
2019-03-05T07:11:20.816Z,62.50
2019-03-05T07:13:50.897Z,62.30
2019-03-05T07:16:31.274Z,61.90
2019-03-05T07:19:00.960Z,62.10
2019-03-05T07:21:44.522Z,62.00
2019-03-05T07:24:27.866Z,62.00
2019-03-05T07:26:56.106Z,62.00
2019-03-05T07:29:24.431Z,62.10
2019-03-05T07:31:52.769Z,61.90
2019-03-05T07:34:22.649Z,61.90
2019-03-05T07:36:50.891Z,62.10
2019-03-05T07:39:21.475Z,62.00
2019-03-05T07:41:49.939Z,62.00
2019-03-05T07:44:18.207Z,62.30
2019-03-05T07:46:46.484Z,62.40
2019-03-05T07:49:14.741Z,63.00
2019-03-05T07:51:42.995Z,62.60
2019-03-05T07:54:11.232Z,62.80
2019-03-05T07:56:39.474Z,62.50
2019-03-05T07:59:07.740Z,62.20
2019-03-05T08:01:35.984Z,62.50
2019-03-05T08:04:04.259Z,62.50
2019-03-05T08:06:32.503Z,62.30
2019-03-05T08:09:29.808Z,61.90
2019-03-05T08:12:01.307Z,62.10
2019-03-05T08:14:41.872Z,61.80
2019-03-05T08:17:10.112Z,61.80
2019-03-05T08:19:38.360Z,60.80
2019-03-05T08:22:08.779Z,61.40
2019-03-05T08:24:36.973Z,61.80
2019-03-05T08:27:05.271Z,61.30
2019-03-05T08:29:33.508Z,61.30
2019-03-05T08:32:01.781Z,60.90
2019-03-05T08:34:30.063Z,60.80
2019-03-05T08:36:58.422Z,60.60
2019-03-05T08:39:26.709Z,59.80
2019-03-05T08:41:55.055Z,59.90
2019-03-05T08:44:23.267Z,59.10
2019-03-05T08:46:51.632Z,59.20
2019-03-05T08:49:19.947Z,58.90
2019-03-05T08:51:48.214Z,58.90
2019-03-05T08:54:16.447Z,58.20
2019-03-05T08:56:44.770Z,57.20
2019-03-05T08:59:13.028Z,56.90
2019-03-05T09:01:41.321Z,56.80
2019-03-05T09:04:09.660Z,56.70
2019-03-05T09:06:37.983Z,55.80
2019-03-05T09:09:08.825Z,55.90
2019-03-05T09:11:37.071Z,55.60
2019-03-05T09:14:05.686Z,55.40
2019-03-05T09:16:33.934Z,55.00
2019-03-05T09:19:02.208Z,54.80
2019-03-05T09:21:30.460Z,54.70
2019-03-05T09:23:58.709Z,54.30
2019-03-05T09:26:26.956Z,53.30
2019-03-05T09:28:55.200Z,53.00
2019-03-05T09:31:23.449Z,53.70
2019-03-05T09:33:51.712Z,53.40
2019-03-05T09:36:19.952Z,53.30
2019-03-05T09:38:48.187Z,52.80
2019-03-05T09:41:16.443Z,52.90
2019-03-05T09:43:44.690Z,53.00
2019-03-05T09:46:12.975Z,52.90
2019-03-05T09:48:41.259Z,53.30
2019-03-05T09:51:09.505Z,53.20
2019-03-05T09:53:37.751Z,53.10
2019-03-05T09:56:06.041Z,53.10
2019-03-05T09:58:34.527Z,53.70
2019-03-05T10:01:02.805Z,53.40
2019-03-05T10:03:31.060Z,53.20
2019-03-05T10:05:59.331Z,53.40
2019-03-05T10:08:32.375Z,54.00
2019-03-05T10:10:57.582Z,53.80
2019-03-05T10:13:25.842Z,53.20
2019-03-05T10:15:54.105Z,53.00
2019-03-05T10:18:22.343Z,52.10
2019-03-05T10:20:50.607Z,52.00
2019-03-05T10:23:18.869Z,50.80
2019-03-05T10:25:47.194Z,51.00
2019-03-05T10:28:15.433Z,50.80
2019-03-05T10:30:44.070Z,50.40
2019-03-05T10:33:12.979Z,49.30
2019-03-05T10:35:41.264Z,49.00
2019-03-05T10:38:10.116Z,48.70
2019-03-05T10:40:44.460Z,48.60
2019-03-05T10:43:17.134Z,48.00
2019-03-05T10:45:46.308Z,47.60
2019-03-05T10:48:17.008Z,47.60
2019-03-05T10:50:46.051Z,46.20
2019-03-05T10:53:14.349Z,46.70
2019-03-05T10:55:42.614Z,46.30
2019-03-05T10:58:10.958Z,46.00
2019-03-05T11:00:42.511Z,46.10
2019-03-05T11:03:10.928Z,44.80
2019-03-05T11:05:39.290Z,45.10
2019-03-05T11:08:08.100Z,44.60
2019-03-05T11:10:36.468Z,44.60
2019-03-05T11:13:04.772Z,44.00
2019-03-05T11:15:34.190Z,44.00
2019-03-05T11:18:02.452Z,44.10
2019-03-05T11:20:30.726Z,43.10
2019-03-05T11:22:58.963Z,43.10
2019-03-05T11:25:27.198Z,43.10
2019-03-05T11:27:55.468Z,42.70
2019-03-05T11:30:35.789Z,43.10
2019-03-05T11:32:56.728Z,42.30
2019-03-05T11:35:31.772Z,42.50
2019-03-05T11:38:00.020Z,41.20
2019-03-05T11:40:28.256Z,40.90
2019-03-05T11:42:56.533Z,41.00
2019-03-05T11:45:26.285Z,39.50
2019-03-05T11:47:54.679Z,39.00
2019-03-05T11:50:23.055Z,38.90
2019-03-05T11:52:51.377Z,38.60
2019-03-05T11:55:25.030Z,38.70
2019-03-05T11:57:53.290Z,39.50
2019-03-05T12:00:42.321Z,39.80
2019-03-05T12:03:10.586Z,40.10
2019-03-05T12:05:38.891Z,40.90
2019-03-05T12:08:07.161Z,40.10
2019-03-05T12:10:35.425Z,39.90
2019-03-05T12:13:03.666Z,39.10
2019-03-05T12:15:36.622Z,39.00
2019-03-05T12:18:04.895Z,38.30
2019-03-05T12:20:33.160Z,38.50
2019-03-05T12:23:02.352Z,39.00
2019-03-05T12:25:30.906Z,38.90
2019-03-05T12:28:09.462Z,38.40
2019-03-05T12:30:35.433Z,38.20
2019-03-05T12:33:06.482Z,37.80
2019-03-05T12:35:35.491Z,37.20
2019-03-05T12:38:03.747Z,37.70
2019-03-05T12:40:32.002Z,38.50
2019-03-05T12:43:00.257Z,39.20
2019-03-05T12:45:28.481Z,39.90
2019-03-05T12:47:56.744Z,40.20
2019-03-05T12:50:27.374Z,40.80
2019-03-05T12:52:56.358Z,40.20
2019-03-05T12:55:24.717Z,39.10
2019-03-05T12:57:52.957Z,38.90
2019-03-05T13:00:30.683Z,37.90
2019-03-05T13:02:58.986Z,37.70
2019-03-05T13:05:27.253Z,38.20
2019-03-05T13:07:56.671Z,38.50
2019-03-05T13:10:35.976Z,38.50
2019-03-05T13:13:03.393Z,38.90
2019-03-05T13:15:36.897Z,38.90
2019-03-05T13:18:05.192Z,39.80
2019-03-05T13:20:33.464Z,39.70
2019-03-05T13:23:08.462Z,40.20
2019-03-05T13:25:31.696Z,40.60
2019-03-05T13:28:02.254Z,40.80
2019-03-05T13:30:33.094Z,40.80
2019-03-05T13:33:01.356Z,40.60
2019-03-05T13:35:30.810Z,40.70
2019-03-05T13:38:03.374Z,40.70
2019-03-05T13:40:34.168Z,41.10
2019-03-05T13:43:02.574Z,41.70
2019-03-05T13:45:30.846Z,42.00
2019-03-05T13:48:02.492Z,41.20
2019-03-05T13:50:39.752Z,41.50
2019-03-05T13:53:14.747Z,41.60
2019-03-05T13:55:44.856Z,41.30
2019-03-05T13:58:32.876Z,41.60
2019-03-05T14:01:01.134Z,40.70
2019-03-05T14:03:38.623Z,41.10
2019-03-05T14:06:29.579Z,40.70
2019-03-05T14:09:12.322Z,40.80
2019-03-05T14:11:41.444Z,41.10
2019-03-05T14:14:18.192Z,40.70
2019-03-05T14:16:47.771Z,40.90
2019-03-05T14:19:16.093Z,40.60
2019-03-05T14:21:44.368Z,41.10
2019-03-05T14:24:12.858Z,41.70
2019-03-05T14:26:41.130Z,41.70
2019-03-05T14:29:09.434Z,41.80
2019-03-05T14:31:37.858Z,41.90
2019-03-05T14:34:06.202Z,42.20
2019-03-05T14:36:34.459Z,42.20
2019-03-05T14:39:04.178Z,42.50
2019-03-05T14:41:32.421Z,42.50
2019-03-05T14:44:00.804Z,42.80
2019-03-05T14:46:29.094Z,42.60
2019-03-05T14:48:57.498Z,42.40
2019-03-05T14:51:25.832Z,42.60
2019-03-05T14:53:54.115Z,42.90
2019-03-05T14:56:22.446Z,43.20
2019-03-05T14:58:50.753Z,43.10
2019-03-05T15:01:19.061Z,43.30
2019-03-05T15:03:47.320Z,43.50
2019-03-05T15:06:15.659Z,43.30
2019-03-05T15:08:44.101Z,43.70
2019-03-05T15:11:12.362Z,43.80
2019-03-05T15:13:40.656Z,43.70
2019-03-05T15:16:08.955Z,43.90
2019-03-05T15:18:37.246Z,43.80
2019-03-05T15:21:05.515Z,43.90
2019-03-05T15:23:36.601Z,44.20
2019-03-05T15:26:04.954Z,44.10
2019-03-05T15:28:33.243Z,44.70
2019-03-05T15:31:01.616Z,43.80
2019-03-05T15:33:29.929Z,43.80
2019-03-05T15:35:59.116Z,43.90
2019-03-05T15:38:29.124Z,44.00
2019-03-05T15:40:57.448Z,44.30
2019-03-05T15:43:25.769Z,44.30
2019-03-05T15:45:54.015Z,44.50
2019-03-05T15:48:22.403Z,44.60
2019-03-05T15:50:50.752Z,45.50
2019-03-05T15:53:19.114Z,47.20
2019-03-05T15:55:47.376Z,48.20
2019-03-05T15:58:15.639Z,49.10
2019-03-05T16:00:43.875Z,49.30
2019-03-05T16:03:12.327Z,49.50
2019-03-05T16:05:40.772Z,49.90
2019-03-05T16:08:09.058Z,51.00
2019-03-05T16:10:37.328Z,51.90
2019-03-05T16:13:06.253Z,52.80
2019-03-05T16:15:34.602Z,53.30
2019-03-05T16:18:05.297Z,53.70
2019-03-05T16:20:32.836Z,53.80
2019-03-05T16:23:01.097Z,53.60
2019-03-05T16:25:29.430Z,53.40
2019-03-05T16:27:58.058Z,53.40
2019-03-05T16:30:48.229Z,53.60
2019-03-05T16:33:24.082Z,53.50
2019-03-05T16:36:10.326Z,53.60
2019-03-05T16:38:56.299Z,54.00
2019-03-05T16:41:26.211Z,54.60
2019-03-05T16:44:02.147Z,55.10
2019-03-05T16:46:50.334Z,55.80
2019-03-05T16:49:36.694Z,56.40
2019-03-05T16:52:18.585Z,56.90
2019-03-05T16:54:57.412Z,58.00
2019-03-05T16:57:43.554Z,58.30
2019-03-05T17:00:33.676Z,58.90
2019-03-05T17:03:15.912Z,59.60
2019-03-05T17:05:57.586Z,59.40
2019-03-05T17:08:30.293Z,60.00
2019-03-05T17:11:00.277Z,60.80
2019-03-05T17:13:30.747Z,61.70
2019-03-05T17:15:59.260Z,61.70
2019-03-05T17:18:27.566Z,62.60
2019-03-05T17:20:56.366Z,63.20
2019-03-05T17:23:24.738Z,63.20
2019-03-05T17:25:53.164Z,63.80
2019-03-05T17:28:21.445Z,64.00
2019-03-05T17:30:49.671Z,64.30
2019-03-05T17:33:18.107Z,64.80
2019-03-05T17:35:46.400Z,65.00
2019-03-05T17:38:14.698Z,64.60
2019-03-05T17:40:42.935Z,64.90
2019-03-05T17:43:11.214Z,64.90
2019-03-05T17:45:39.735Z,65.40
2019-03-05T17:48:08.007Z,65.20
2019-03-05T17:50:36.234Z,65.70
2019-03-05T17:53:04.500Z,65.70
2019-03-05T17:55:32.948Z,66.40
2019-03-05T17:58:01.506Z,66.10
2019-03-05T18:00:31.473Z,66.60
2019-03-05T18:03:01.667Z,67.10
2019-03-05T18:05:29.984Z,67.30
2019-03-05T18:07:58.370Z,67.50
2019-03-05T18:10:26.692Z,67.60
2019-03-05T18:12:55.379Z,68.20
2019-03-05T18:15:30.064Z,68.20
2019-03-05T18:17:58.361Z,68.40
2019-03-05T18:20:26.591Z,68.40
2019-03-05T18:22:54.834Z,68.60
2019-03-05T18:25:23.087Z,68.70
2019-03-05T18:27:51.561Z,68.70
2019-03-05T18:30:27.695Z,68.80
2019-03-05T18:35:43.938Z,69.40
2019-03-05T18:38:12.410Z,69.30
2019-03-05T18:40:40.731Z,69.00
2019-03-05T18:43:09.128Z,69.30
2019-03-05T18:45:38.428Z,69.70
2019-03-05T18:48:07.044Z,69.60
2019-03-05T18:50:35.380Z,69.60
2019-03-05T18:53:04.963Z,69.60
2019-03-05T18:55:33.241Z,69.90
2019-03-05T18:58:01.697Z,69.50
2019-03-05T19:00:34.591Z,70.00
2019-03-05T19:03:08.343Z,69.80
2019-03-05T19:05:36.927Z,69.60
2019-03-05T19:08:05.327Z,70.00
2019-03-05T19:10:33.583Z,70.10
2019-03-05T19:13:01.931Z,70.10
2019-03-05T19:15:30.544Z,69.60
2019-03-05T19:17:59.186Z,69.40
2019-03-05T19:20:30.828Z,69.40
2019-03-05T19:22:59.937Z,69.60
2019-03-05T19:25:45.692Z,69.60
2019-03-05T19:28:14.035Z,69.60
2019-03-05T19:30:47.347Z,69.30
2019-03-05T19:33:15.587Z,69.30
2019-03-05T19:35:43.847Z,69.10
2019-03-05T19:38:12.097Z,69.20
2019-03-05T19:40:44.579Z,69.10
2019-03-05T19:43:12.861Z,69.50
2019-03-05T19:45:41.167Z,69.10
2019-03-05T19:48:09.439Z,69.60
2019-03-05T19:50:37.700Z,69.80
2019-03-05T19:53:05.993Z,69.70
2019-03-05T19:55:34.319Z,69.20
2019-03-05T19:58:09.611Z,70.20
2019-03-05T20:00:42.587Z,69.50
2019-03-05T20:03:10.908Z,69.80
2019-03-05T20:05:40.161Z,69.20
2019-03-05T20:08:08.631Z,69.50
2019-03-05T20:10:38.234Z,69.50
2019-03-05T20:13:06.525Z,69.40
2019-03-05T20:15:34.861Z,69.50
2019-03-05T20:18:03.090Z,69.10
2019-03-05T20:20:31.424Z,69.00
2019-03-05T20:22:59.663Z,68.80
2019-03-05T20:25:29.823Z,68.30
2019-03-05T20:27:58.135Z,68.40
2019-03-05T20:30:26.470Z,68.50
2019-03-05T20:32:54.718Z,69.20
2019-03-05T20:35:22.984Z,69.20
2019-03-05T20:37:51.211Z,69.40
2019-03-05T20:40:27.149Z,69.50
2019-03-05T20:42:55.379Z,69.30
2019-03-05T20:45:48.365Z,69.30
2019-03-05T20:48:16.983Z,69.30
2019-03-05T20:50:45.335Z,69.50
2019-03-05T20:53:13.581Z,69.60
2019-03-05T20:55:41.829Z,69.80
2019-03-05T20:58:10.076Z,69.90
2019-03-05T21:00:39.618Z,70.20
2019-03-05T21:03:09.224Z,70.60
2019-03-05T21:05:45.517Z,70.60
2019-03-05T21:08:13.772Z,71.60
2019-03-05T21:10:42.018Z,71.10
2019-03-05T21:13:10.550Z,71.40
2019-03-05T21:15:39.350Z,71.70
2019-03-05T21:18:09.774Z,71.50
2019-03-05T21:20:39.232Z,72.20
2019-03-05T21:23:07.566Z,71.60
2019-03-05T21:25:35.902Z,72.40
2019-03-05T21:28:04.259Z,71.90
2019-03-05T21:30:32.514Z,72.10
2019-03-05T21:33:00.764Z,72.00
2019-03-05T21:35:29.022Z,72.00
2019-03-05T21:37:57.877Z,72.20
2019-03-05T21:40:30.425Z,72.00
2019-03-05T21:42:58.759Z,72.50
2019-03-05T21:45:35.675Z,72.60
2019-03-05T21:48:04.709Z,72.60
2019-03-05T21:50:32.952Z,72.70
2019-03-05T21:53:01.207Z,72.80
2019-03-05T21:55:29.463Z,72.80
2019-03-05T21:57:57.715Z,72.80
2019-03-05T22:00:29.484Z,73.10
2019-03-05T22:02:59.477Z,73.60
2019-03-05T22:05:27.712Z,73.40
2019-03-05T22:07:56.035Z,74.00
2019-03-05T22:10:24.555Z,74.30
2019-03-05T22:12:52.994Z,74.40
2019-03-05T22:15:22.757Z,74.20
2019-03-05T22:17:51.423Z,74.30
2019-03-05T22:20:20.521Z,74.00
2019-03-05T22:22:48.793Z,74.00
2019-03-05T22:25:18.830Z,74.20
2019-03-05T22:27:47.133Z,74.50
2019-03-05T22:30:20.234Z,74.00
2019-03-05T22:32:48.484Z,73.80
2019-03-05T22:35:17.572Z,73.80
2019-03-05T22:37:45.827Z,73.80
2019-03-05T22:40:15.837Z,74.00
2019-03-05T22:42:44.062Z,74.10
2019-03-05T22:45:21.356Z,74.40
2019-03-05T22:47:49.841Z,74.20
2019-03-05T22:50:18.077Z,74.60
2019-03-05T22:52:46.338Z,74.70
2019-03-05T22:55:18.167Z,74.40
2019-03-05T22:57:46.896Z,74.50
2019-03-05T23:00:25.920Z,74.40
2019-03-05T23:02:54.203Z,74.60
2019-03-05T23:05:22.569Z,74.60
2019-03-05T23:07:50.807Z,74.90
2019-03-05T23:10:19.411Z,74.60
2019-03-05T23:12:47.660Z,74.60
2019-03-05T23:15:16.636Z,74.70
2019-03-05T23:17:45.475Z,74.60
2019-03-05T23:20:15.465Z,74.60
2019-03-05T23:22:44.031Z,74.60
2019-03-05T23:25:14.651Z,74.50
2019-03-05T23:27:43.022Z,74.60
2019-03-05T23:30:20.129Z,74.50
2019-03-05T23:32:52.620Z,74.50
2019-03-05T23:35:20.849Z,75.00
2019-03-05T23:37:49.195Z,74.90
2019-03-05T23:40:17.421Z,74.80
2019-03-05T23:42:45.677Z,75.00
2019-03-05T23:45:16.627Z,75.10
2019-03-05T23:47:44.890Z,75.00
2019-03-05T23:50:14.658Z,75.30
2019-03-05T23:52:42.935Z,75.40
2019-03-05T23:55:11.912Z,75.70
2019-03-05T23:57:40.159Z,75.70
